createdAt,value
2018-09-10T00:09:37.487Z,0
2018-09-10T00:19:37.576Z,0
2018-09-10T00:29:37.538Z,0
2018-09-10T00:39:37.550Z,0
2018-09-10T00:49:37.527Z,0
2018-09-10T00:59:37.521Z,0
2018-09-10T01:09:37.600Z,0
2018-09-10T01:19:37.537Z,0
2018-09-10T01:29:37.600Z,0
2018-09-10T01:39:37.652Z,0
2018-09-10T01:49:37.602Z,0
2018-09-10T01:59:37.591Z,0
2018-09-10T02:09:37.539Z,0
2018-09-10T02:19:37.556Z,0
2018-09-10T02:29:37.541Z,0
2018-09-10T02:39:37.520Z,0
2018-09-10T02:49:37.519Z,0
2018-09-10T02:59:37.569Z,0
2018-09-10T03:16:05.591Z,0
2018-09-10T03:19:37.483Z,0
2018-09-10T03:29:37.538Z,0
2018-09-10T03:39:37.494Z,0
2018-09-10T03:49:37.498Z,0
2018-09-10T03:59:37.525Z,0
2018-09-10T04:09:37.500Z,0
2018-09-10T04:19:37.539Z,0
2018-09-10T04:29:37.519Z,0
2018-09-10T04:39:37.520Z,16
2018-09-10T04:49:37.595Z,48
2018-09-10T04:59:37.519Z,120
2018-09-10T05:09:37.548Z,296
2018-09-10T05:19:37.507Z,636
2018-09-10T05:29:37.528Z,768
2018-09-10T05:39:37.513Z,1176
2018-09-10T05:49:37.497Z,1744
2018-09-10T05:59:37.527Z,1508
2018-09-10T06:09:37.506Z,2696
2018-09-10T06:19:37.536Z,6268
2018-09-10T06:29:37.521Z,7312
2018-09-10T06:39:37.533Z,6588
2018-09-10T06:49:37.510Z,6952
2018-09-10T06:59:37.553Z,6444
2018-09-10T07:09:37.677Z,8008
2018-09-10T07:19:37.600Z,12924
2018-09-10T07:29:37.540Z,14944
2018-09-10T07:39:37.583Z,10232
2018-09-10T07:49:37.502Z,7704
2018-09-10T07:59:37.553Z,7208
2018-09-10T08:09:37.590Z,7392
2018-09-10T08:19:37.654Z,9684
2018-09-10T08:29:37.617Z,10740
2018-09-10T08:39:37.605Z,9548
2018-09-10T08:49:37.655Z,8908
2018-09-10T08:59:37.531Z,11972
2018-09-10T09:09:37.571Z,13144
2018-09-10T09:19:37.788Z,12016
2018-09-10T09:29:37.584Z,17180
2018-09-10T09:39:37.607Z,15520
2018-09-10T09:49:37.608Z,12932
2018-09-10T09:59:37.625Z,13124
2018-09-10T10:09:37.643Z,15548
2018-09-10T10:19:37.596Z,10916
2018-09-10T10:29:37.675Z,13000
2018-09-10T10:39:37.820Z,12160
2018-09-10T10:49:37.617Z,11628
2018-09-10T10:59:37.683Z,12692
2018-09-10T11:09:37.634Z,15180
2018-09-10T11:19:37.622Z,16952
2018-09-10T11:29:37.610Z,13816
2018-09-10T11:39:38.395Z,13108
2018-09-10T11:49:37.664Z,14572
2018-09-10T11:59:37.683Z,12836
2018-09-10T12:09:37.592Z,11780
2018-09-10T12:19:37.554Z,11488
2018-09-10T12:29:37.686Z,10188
2018-09-10T12:39:37.920Z,15216
2018-09-10T12:49:37.627Z,15524
2018-09-10T12:59:37.652Z,17364
2018-09-10T13:09:37.605Z,14680
2018-09-10T13:19:37.672Z,12588
2018-09-10T13:29:37.810Z,10988
2018-09-10T13:39:38.675Z,11988
2018-09-10T13:49:37.657Z,9260
2018-09-10T13:59:37.690Z,10940
2018-09-10T14:09:37.592Z,8196
2018-09-10T14:19:37.739Z,8708
2018-09-10T14:29:37.622Z,7076
2018-09-10T14:39:37.652Z,6652
2018-09-10T14:49:37.674Z,5928
2018-09-10T14:59:38.709Z,6044
2018-09-10T15:09:37.616Z,6940
2018-09-10T15:19:37.641Z,4136
2018-09-10T15:29:37.716Z,2900
2018-09-10T15:39:37.632Z,4672
2018-09-10T15:49:37.723Z,4364
2018-09-10T15:59:37.676Z,4236
2018-09-10T16:09:37.662Z,3112
2018-09-10T16:19:37.674Z,3168
2018-09-10T16:29:37.649Z,3296
2018-09-10T16:39:37.660Z,2112
2018-09-10T16:49:37.679Z,1552
2018-09-10T16:59:37.781Z,1756
2018-09-10T17:09:37.691Z,1296
2018-09-10T17:19:37.675Z,1028
2018-09-10T17:29:37.636Z,648
2018-09-10T17:39:37.719Z,316
2018-09-10T17:49:37.690Z,196
2018-09-10T17:59:37.688Z,84
2018-09-10T18:09:37.990Z,24
2018-09-10T18:19:37.680Z,4
2018-09-10T18:29:37.730Z,4
2018-09-10T18:39:37.750Z,0
2018-09-10T18:49:37.679Z,0
2018-09-10T18:59:37.664Z,0
2018-09-10T19:09:37.711Z,0
2018-09-10T19:19:37.993Z,0
2018-09-10T19:29:37.669Z,0
2018-09-10T19:39:37.742Z,0
2018-09-10T19:49:37.712Z,0
2018-09-10T19:59:37.954Z,0
2018-09-10T20:09:37.983Z,0
2018-09-10T20:19:37.635Z,0
2018-09-10T20:29:38.031Z,0
2018-09-10T20:39:37.856Z,0
2018-09-10T20:49:37.833Z,0
2018-09-10T20:59:37.758Z,0
2018-09-10T21:09:37.727Z,0
2018-09-10T21:19:37.775Z,0
2018-09-10T21:29:37.715Z,0
2018-09-10T21:39:37.666Z,0
2018-09-10T21:49:37.712Z,0
2018-09-10T21:59:38.124Z,0
2018-09-10T22:09:37.685Z,0
2018-09-10T22:19:37.695Z,0
2018-09-10T22:29:37.650Z,0
2018-09-10T22:39:37.685Z,0
2018-09-10T22:49:37.696Z,0
2018-09-10T22:59:37.688Z,0
2018-09-10T23:09:38.402Z,0
2018-09-10T23:19:37.670Z,0
2018-09-10T23:29:37.672Z,0
2018-09-10T23:39:37.672Z,0
2018-09-10T23:49:37.681Z,0
2018-09-10T23:59:38.393Z,0
